sensor_id;sensor_type;location;lat;lon;timestamp;P1;durP1;ratioP1;P2;durP2;ratioP2
3733;SDS011;1882;52.256;8.874;2023-02-28T00:00:36;10.00;;;5.00;;
3733;SDS011;1882;52.256;8.874;2023-02-28T00:03:11;9.13;;;5.37;;
3733;SDS011;1882;52.256;8.874;2023-02-28T00:05:38;12.00;;;5.40;;
3733;SDS011;1882;52.256;8.874;2023-02-28T00:08:04;6.90;;;5.10;;
3733;SDS011;1882;52.256;8.874;2023-02-28T00:10:41;15.07;;;4.83;;
3733;SDS011;1882;52.256;8.874;2023-02-28T00:13:08;8.80;;;5.13;;
3733;SDS011;1882;52.256;8.874;2023-02-28T00:15:35;8.50;;;5.30;;
3733;SDS011;1882;52.256;8.874;2023-02-28T00:18:02;7.10;;;5.17;;
3733;SDS011;1882;52.256;8.874;2023-02-28T00:20:29;8.53;;;5.20;;
3733;SDS011;1882;52.256;8.874;2023-02-28T00:22:56;8.17;;;5.10;;
3733;SDS011;1882;52.256;8.874;2023-02-28T00:25:24;6.70;;;5.07;;
3733;SDS011;1882;52.256;8.874;2023-02-28T00:28:01;9.77;;;5.33;;
3733;SDS011;1882;52.256;8.874;2023-02-28T00:30:28;7.63;;;5.10;;
3733;SDS011;1882;52.256;8.874;2023-02-28T00:32:57;8.40;;;4.90;;
3733;SDS011;1882;52.256;8.874;2023-02-28T00:35:34;9.50;;;4.97;;
3733;SDS011;1882;52.256;8.874;2023-02-28T00:38:01;8.40;;;4.80;;
3733;SDS011;1882;52.256;8.874;2023-02-28T00:40:28;7.50;;;4.40;;
3733;SDS011;1882;52.256;8.874;2023-02-28T00:43:03;5.73;;;4.20;;
3733;SDS011;1882;52.256;8.874;2023-02-28T00:45:30;7.70;;;4.27;;
3733;SDS011;1882;52.256;8.874;2023-02-28T00:47:57;7.03;;;4.57;;
3733;SDS011;1882;52.256;8.874;2023-02-28T00:50:24;6.13;;;4.40;;
3733;SDS011;1882;52.256;8.874;2023-02-28T00:53:05;11.90;;;5.53;;
3733;SDS011;1882;52.256;8.874;2023-02-28T00:55:31;11.40;;;5.37;;
3733;SDS011;1882;52.256;8.874;2023-02-28T00:57:58;8.40;;;5.07;;
3733;SDS011;1882;52.256;8.874;2023-02-28T01:00:30;8.53;;;5.07;;
3733;SDS011;1882;52.256;8.874;2023-02-28T01:02:59;8.70;;;5.00;;
3733;SDS011;1882;52.256;8.874;2023-02-28T01:05:29;8.83;;;5.47;;
3733;SDS011;1882;52.256;8.874;2023-02-28T01:08:03;9.10;;;5.00;;
3733;SDS011;1882;52.256;8.874;2023-02-28T01:10:30;5.47;;;4.50;;
3733;SDS011;1882;52.256;8.874;2023-02-28T01:12:57;8.10;;;4.20;;
3733;SDS011;1882;52.256;8.874;2023-02-28T01:15:33;6.10;;;4.60;;
3733;SDS011;1882;52.256;8.874;2023-02-28T01:18:00;6.40;;;4.70;;
3733;SDS011;1882;52.256;8.874;2023-02-28T01:20:29;6.30;;;4.23;;
3733;SDS011;1882;52.256;8.874;2023-02-28T01:22:56;7.47;;;4.67;;
3733;SDS011;1882;52.256;8.874;2023-02-28T01:25:26;8.50;;;4.90;;
3733;SDS011;1882;52.256;8.874;2023-02-28T01:28:00;7.07;;;4.23;;
3733;SDS011;1882;52.256;8.874;2023-02-28T01:30:30;8.30;;;4.47;;
3733;SDS011;1882;52.256;8.874;2023-02-28T01:32:59;7.73;;;4.90;;
3733;SDS011;1882;52.256;8.874;2023-02-28T01:35:28;5.80;;;4.50;;
3733;SDS011;1882;52.256;8.874;2023-02-28T01:37:58;11.03;;;4.50;;
3733;SDS011;1882;52.256;8.874;2023-02-28T01:40:41;7.00;;;4.60;;
3733;SDS011;1882;52.256;8.874;2023-02-28T01:43:16;9.47;;;4.60;;
3733;SDS011;1882;52.256;8.874;2023-02-28T01:45:51;6.50;;;4.20;;
3733;SDS011;1882;52.256;8.874;2023-02-28T01:48:22;6.07;;;4.67;;
3733;SDS011;1882;52.256;8.874;2023-02-28T01:50:53;5.07;;;3.93;;
3733;SDS011;1882;52.256;8.874;2023-02-28T01:53:29;4.40;;;3.60;;
3733;SDS011;1882;52.256;8.874;2023-02-28T01:55:58;7.40;;;3.90;;
3733;SDS011;1882;52.256;8.874;2023-02-28T01:58:25;6.67;;;4.20;;
3733;SDS011;1882;52.256;8.874;2023-02-28T02:01:01;5.03;;;3.77;;
3733;SDS011;1882;52.256;8.874;2023-02-28T02:03:29;9.90;;;3.80;;
3733;SDS011;1882;52.256;8.874;2023-02-28T02:05:57;6.63;;;3.90;;
3733;SDS011;1882;52.256;8.874;2023-02-28T02:08:26;6.57;;;3.57;;
3733;SDS011;1882;52.256;8.874;2023-02-28T02:10:55;5.00;;;3.20;;
3733;SDS011;1882;52.256;8.874;2023-02-28T02:13:38;4.60;;;3.00;;
3733;SDS011;1882;52.256;8.874;2023-02-28T02:16:33;3.63;;;2.90;;
3733;SDS011;1882;52.256;8.874;2023-02-28T02:31:26;2.83;;;2.50;;
3733;SDS011;1882;52.256;8.874;2023-02-28T02:34:20;3.93;;;2.70;;
3733;SDS011;1882;52.256;8.874;2023-02-28T02:37:22;3.20;;;2.90;;
3733;SDS011;1882;52.256;8.874;2023-02-28T02:48:11;4.50;;;2.83;;
3733;SDS011;1882;52.256;8.874;2023-02-28T02:50:41;3.47;;;2.37;;
3733;SDS011;1882;52.256;8.874;2023-02-28T02:53:14;5.50;;;2.53;;
3733;SDS011;1882;52.256;8.874;2023-02-28T02:55:45;3.33;;;2.77;;
3733;SDS011;1882;52.256;8.874;2023-02-28T02:58:14;5.67;;;3.33;;
3733;SDS011;1882;52.256;8.874;2023-02-28T03:00:50;3.53;;;2.20;;
3733;SDS011;1882;52.256;8.874;2023-02-28T03:03:23;2.43;;;2.20;;
3733;SDS011;1882;52.256;8.874;2023-02-28T03:05:59;2.40;;;2.20;;
3733;SDS011;1882;52.256;8.874;2023-02-28T03:08:27;3.77;;;2.47;;
3733;SDS011;1882;52.256;8.874;2023-02-28T03:11:03;2.10;;;1.90;;
3733;SDS011;1882;52.256;8.874;2023-02-28T03:33:05;4.10;;;2.83;;
3733;SDS011;1882;52.256;8.874;2023-02-28T03:35:38;4.07;;;2.30;;
3733;SDS011;1882;52.256;8.874;2023-02-28T03:41:09;2.23;;;1.90;;
3733;SDS011;1882;52.256;8.874;2023-02-28T03:43:41;5.13;;;2.30;;
3733;SDS011;1882;52.256;8.874;2023-02-28T03:46:12;2.23;;;2.00;;
3733;SDS011;1882;52.256;8.874;2023-02-28T03:48:47;3.63;;;2.13;;
3733;SDS011;1882;52.256;8.874;2023-02-28T03:51:27;2.10;;;1.90;;
3733;SDS011;1882;52.256;8.874;2023-02-28T03:54:06;1.97;;;1.73;;
3733;SDS011;1882;52.256;8.874;2023-02-28T03:56:38;2.30;;;2.10;;
3733;SDS011;1882;52.256;8.874;2023-02-28T03:59:10;3.90;;;2.23;;
3733;SDS011;1882;52.256;8.874;2023-02-28T04:01:41;3.27;;;2.40;;
3733;SDS011;1882;52.256;8.874;2023-02-28T04:04:10;2.60;;;1.80;;
3733;SDS011;1882;52.256;8.874;2023-02-28T04:06:40;3.00;;;2.10;;
3733;SDS011;1882;52.256;8.874;2023-02-28T04:09:10;2.40;;;1.83;;
3733;SDS011;1882;52.256;8.874;2023-02-28T04:14:04;2.20;;;2.00;;
3733;SDS011;1882;52.256;8.874;2023-02-28T04:16:40;2.20;;;2.00;;
3733;SDS011;1882;52.256;8.874;2023-02-28T04:19:08;1.90;;;1.80;;
3733;SDS011;1882;52.256;8.874;2023-02-28T04:21:45;2.03;;;1.90;;
3733;SDS011;1882;52.256;8.874;2023-02-28T04:24:19;5.67;;;2.10;;
3733;SDS011;1882;52.256;8.874;2023-02-28T04:26:57;2.07;;;1.73;;
3733;SDS011;1882;52.256;8.874;2023-02-28T04:29:26;2.80;;;1.80;;
3733;SDS011;1882;52.256;8.874;2023-02-28T04:32:10;2.17;;;1.90;;
3733;SDS011;1882;52.256;8.874;2023-02-28T04:34:37;1.83;;;1.73;;
3733;SDS011;1882;52.256;8.874;2023-02-28T04:37:06;2.40;;;1.90;;
3733;SDS011;1882;52.256;8.874;2023-02-28T04:39:39;3.90;;;2.13;;
3733;SDS011;1882;52.256;8.874;2023-02-28T04:42:15;3.20;;;1.70;;
3733;SDS011;1882;52.256;8.874;2023-02-28T04:44:42;2.20;;;1.87;;
3733;SDS011;1882;52.256;8.874;2023-02-28T04:47:09;2.20;;;1.80;;
3733;SDS011;1882;52.256;8.874;2023-02-28T04:49:45;1.90;;;1.80;;
3733;SDS011;1882;52.256;8.874;2023-02-28T04:52:12;2.90;;;2.07;;
3733;SDS011;1882;52.256;8.874;2023-02-28T04:54:39;1.90;;;1.80;;
3733;SDS011;1882;52.256;8.874;2023-02-28T04:57:06;4.40;;;1.90;;
3733;SDS011;1882;52.256;8.874;2023-02-28T04:59:41;2.10;;;2.00;;
3733;SDS011;1882;52.256;8.874;2023-02-28T05:02:08;1.70;;;1.60;;
3733;SDS011;1882;52.256;8.874;2023-02-28T05:04:53;2.13;;;1.97;;
3733;SDS011;1882;52.256;8.874;2023-02-28T05:07:20;2.00;;;1.80;;
3733;SDS011;1882;52.256;8.874;2023-02-28T05:09:46;4.83;;;2.10;;
3733;SDS011;1882;52.256;8.874;2023-02-28T05:12:13;2.60;;;2.40;;
3733;SDS011;1882;52.256;8.874;2023-02-28T05:14:43;2.23;;;2.03;;
3733;SDS011;1882;52.256;8.874;2023-02-28T05:17:10;2.03;;;1.83;;
3733;SDS011;1882;52.256;8.874;2023-02-28T05:19:39;1.70;;;1.60;;
3733;SDS011;1882;52.256;8.874;2023-02-28T05:22:09;2.17;;;1.80;;
3733;SDS011;1882;52.256;8.874;2023-02-28T05:24:42;2.37;;;2.20;;
3733;SDS011;1882;52.256;8.874;2023-02-28T05:27:11;2.40;;;2.20;;
3733;SDS011;1882;52.256;8.874;2023-02-28T05:29:44;2.07;;;1.77;;
3733;SDS011;1882;52.256;8.874;2023-02-28T05:32:11;2.30;;;2.10;;
3733;SDS011;1882;52.256;8.874;2023-02-28T05:34:41;2.63;;;1.97;;
3733;SDS011;1882;52.256;8.874;2023-02-28T05:37:14;2.27;;;2.07;;
3733;SDS011;1882;52.256;8.874;2023-02-28T05:39:43;3.53;;;1.93;;
3733;SDS011;1882;52.256;8.874;2023-02-28T05:42:10;3.43;;;2.10;;
3733;SDS011;1882;52.256;8.874;2023-02-28T05:44:44;3.10;;;2.00;;
3733;SDS011;1882;52.256;8.874;2023-02-28T05:47:14;2.57;;;2.00;;
3733;SDS011;1882;52.256;8.874;2023-02-28T05:49:42;2.37;;;1.83;;
3733;SDS011;1882;52.256;8.874;2023-02-28T05:52:12;2.20;;;2.00;;
3733;SDS011;1882;52.256;8.874;2023-02-28T05:54:39;2.83;;;2.07;;
3733;SDS011;1882;52.256;8.874;2023-02-28T05:57:06;2.00;;;1.90;;
3733;SDS011;1882;52.256;8.874;2023-02-28T05:59:50;2.00;;;1.90;;
3733;SDS011;1882;52.256;8.874;2023-02-28T06:02:17;1.80;;;1.70;;
3733;SDS011;1882;52.256;8.874;2023-02-28T06:04:44;2.10;;;1.90;;
3733;SDS011;1882;52.256;8.874;2023-02-28T06:07:11;2.00;;;1.90;;
3733;SDS011;1882;52.256;8.874;2023-02-28T06:09:38;2.50;;;2.20;;
3733;SDS011;1882;52.256;8.874;2023-02-28T06:12:10;2.80;;;2.03;;
3733;SDS011;1882;52.256;8.874;2023-02-28T06:14:45;3.03;;;2.20;;
3733;SDS011;1882;52.256;8.874;2023-02-28T06:17:11;2.40;;;2.20;;
3733;SDS011;1882;52.256;8.874;2023-02-28T06:19:41;2.70;;;2.20;;
3733;SDS011;1882;52.256;8.874;2023-02-28T06:22:15;5.77;;;2.40;;
3733;SDS011;1882;52.256;8.874;2023-02-28T06:24:41;2.40;;;2.20;;
3733;SDS011;1882;52.256;8.874;2023-02-28T06:27:11;2.50;;;2.30;;
3733;SDS011;1882;52.256;8.874;2023-02-28T06:29:42;2.37;;;2.17;;
3733;SDS011;1882;52.256;8.874;2023-02-28T06:32:12;2.47;;;2.27;;
3733;SDS011;1882;52.256;8.874;2023-02-28T06:34:42;2.40;;;2.07;;
3733;SDS011;1882;52.256;8.874;2023-02-28T06:37:11;2.30;;;2.10;;
3733;SDS011;1882;52.256;8.874;2023-02-28T06:39:45;3.63;;;2.20;;
3733;SDS011;1882;52.256;8.874;2023-02-28T06:42:12;5.67;;;2.47;;
3733;SDS011;1882;52.256;8.874;2023-02-28T06:44:41;2.60;;;2.37;;
3733;SDS011;1882;52.256;8.874;2023-02-28T06:47:09;2.60;;;2.40;;
3733;SDS011;1882;52.256;8.874;2023-02-28T06:49:43;2.50;;;2.30;;
3733;SDS011;1882;52.256;8.874;2023-02-28T06:52:11;3.10;;;2.63;;
3733;SDS011;1882;52.256;8.874;2023-02-28T06:54:38;3.60;;;3.13;;
3733;SDS011;1882;52.256;8.874;2023-02-28T06:57:12;3.53;;;2.90;;
3733;SDS011;1882;52.256;8.874;2023-02-28T06:59:42;5.83;;;3.30;;
3733;SDS011;1882;52.256;8.874;2023-02-28T07:02:11;3.07;;;2.70;;
3733;SDS011;1882;52.256;8.874;2023-02-28T07:04:45;4.20;;;2.90;;
3733;SDS011;1882;52.256;8.874;2023-02-28T07:07:13;5.70;;;3.03;;
3733;SDS011;1882;52.256;8.874;2023-02-28T07:09:39;16.13;;;7.37;;
3733;SDS011;1882;52.256;8.874;2023-02-28T07:12:06;16.20;;;8.37;;
3733;SDS011;1882;52.256;8.874;2023-02-28T07:14:42;11.57;;;6.30;;
3733;SDS011;1882;52.256;8.874;2023-02-28T07:17:12;5.63;;;4.00;;
3733;SDS011;1882;52.256;8.874;2023-02-28T07:19:47;7.10;;;4.50;;
3733;SDS011;1882;52.256;8.874;2023-02-28T07:22:14;4.10;;;3.30;;
3733;SDS011;1882;52.256;8.874;2023-02-28T07:24:41;7.00;;;4.07;;
3733;SDS011;1882;52.256;8.874;2023-02-28T07:27:15;11.03;;;6.07;;
3733;SDS011;1882;52.256;8.874;2023-02-28T07:29:49;6.23;;;3.73;;
3733;SDS011;1882;52.256;8.874;2023-02-28T07:32:24;8.47;;;3.60;;
3733;SDS011;1882;52.256;8.874;2023-02-28T07:34:50;5.80;;;3.20;;
3733;SDS011;1882;52.256;8.874;2023-02-28T07:37:17;3.67;;;2.97;;
3733;SDS011;1882;52.256;8.874;2023-02-28T07:39:44;8.30;;;3.43;;
3733;SDS011;1882;52.256;8.874;2023-02-28T07:42:11;7.57;;;3.93;;
3733;SDS011;1882;52.256;8.874;2023-02-28T07:44:42;6.10;;;4.03;;
3733;SDS011;1882;52.256;8.874;2023-02-28T07:47:11;6.30;;;4.23;;
3733;SDS011;1882;52.256;8.874;2023-02-28T07:49:41;5.40;;;4.47;;
3733;SDS011;1882;52.256;8.874;2023-02-28T07:52:10;7.00;;;3.37;;
3733;SDS011;1882;52.256;8.874;2023-02-28T07:54:40;4.83;;;3.33;;
3733;SDS011;1882;52.256;8.874;2023-02-28T07:57:10;4.43;;;3.93;;
3733;SDS011;1882;52.256;8.874;2023-02-28T07:59:40;5.70;;;4.00;;
3733;SDS011;1882;52.256;8.874;2023-02-28T08:02:13;5.90;;;4.00;;
3733;SDS011;1882;52.256;8.874;2023-02-28T08:04:41;7.80;;;4.40;;
3733;SDS011;1882;52.256;8.874;2023-02-28T08:07:14;4.27;;;3.83;;
3733;SDS011;1882;52.256;8.874;2023-02-28T08:09:42;4.10;;;3.70;;
3733;SDS011;1882;52.256;8.874;2023-02-28T08:12:10;4.40;;;3.80;;
3733;SDS011;1882;52.256;8.874;2023-02-28T08:14:44;5.97;;;5.37;;
3733;SDS011;1882;52.256;8.874;2023-02-28T08:17:11;5.50;;;4.40;;
3733;SDS011;1882;52.256;8.874;2023-02-28T08:19:45;6.30;;;4.50;;
3733;SDS011;1882;52.256;8.874;2023-02-28T08:22:16;7.03;;;4.10;;
3733;SDS011;1882;52.256;8.874;2023-02-28T08:24:45;7.83;;;4.67;;
3733;SDS011;1882;52.256;8.874;2023-02-28T08:27:12;6.20;;;4.30;;
3733;SDS011;1882;52.256;8.874;2023-02-28T08:29:49;4.87;;;3.90;;
3733;SDS011;1882;52.256;8.874;2023-02-28T08:32:16;8.57;;;5.00;;
3733;SDS011;1882;52.256;8.874;2023-02-28T08:34:55;7.13;;;5.00;;
3733;SDS011;1882;52.256;8.874;2023-02-28T08:37:22;6.93;;;5.17;;
3733;SDS011;1882;52.256;8.874;2023-02-28T08:39:48;8.60;;;5.47;;
3733;SDS011;1882;52.256;8.874;2023-02-28T08:42:15;10.50;;;6.53;;
3733;SDS011;1882;52.256;8.874;2023-02-28T08:44:51;9.70;;;6.33;;
3733;SDS011;1882;52.256;8.874;2023-02-28T08:47:18;18.80;;;8.90;;
3733;SDS011;1882;52.256;8.874;2023-02-28T08:49:45;71.60;;;24.80;;
3733;SDS011;1882;52.256;8.874;2023-02-28T08:52:21;69.37;;;23.43;;
3733;SDS011;1882;52.256;8.874;2023-02-28T08:54:48;25.67;;;11.47;;
3733;SDS011;1882;52.256;8.874;2023-02-28T08:57:15;34.47;;;16.40;;
3733;SDS011;1882;52.256;8.874;2023-02-28T08:59:42;19.00;;;9.67;;
3733;SDS011;1882;52.256;8.874;2023-02-28T09:02:18;11.40;;;7.50;;
3733;SDS011;1882;52.256;8.874;2023-02-28T09:04:45;10.57;;;7.50;;
3733;SDS011;1882;52.256;8.874;2023-02-28T09:07:11;11.80;;;7.73;;
3733;SDS011;1882;52.256;8.874;2023-02-28T09:09:38;10.10;;;6.70;;
3733;SDS011;1882;52.256;8.874;2023-02-28T09:12:24;14.00;;;7.50;;
3733;SDS011;1882;52.256;8.874;2023-02-28T09:14:51;12.77;;;7.60;;
3733;SDS011;1882;52.256;8.874;2023-02-28T09:17:19;11.03;;;7.80;;
3733;SDS011;1882;52.256;8.874;2023-02-28T09:19:47;11.50;;;7.70;;
3733;SDS011;1882;52.256;8.874;2023-02-28T09:22:15;13.27;;;8.00;;
3733;SDS011;1882;52.256;8.874;2023-02-28T09:24:50;11.60;;;7.90;;
3733;SDS011;1882;52.256;8.874;2023-02-28T09:27:17;11.13;;;8.13;;
3733;SDS011;1882;52.256;8.874;2023-02-28T09:29:43;10.67;;;6.57;;
3733;SDS011;1882;52.256;8.874;2023-02-28T09:32:10;8.90;;;6.03;;
3733;SDS011;1882;52.256;8.874;2023-02-28T09:34:40;11.20;;;6.30;;
3733;SDS011;1882;52.256;8.874;2023-02-28T09:37:11;10.00;;;6.60;;
3733;SDS011;1882;52.256;8.874;2023-02-28T09:39:40;13.70;;;6.80;;
3733;SDS011;1882;52.256;8.874;2023-02-28T09:42:17;9.97;;;7.13;;
3733;SDS011;1882;52.256;8.874;2023-02-28T09:44:48;12.47;;;7.70;;
3733;SDS011;1882;52.256;8.874;2023-02-28T09:49:55;13.63;;;7.63;;
3733;SDS011;1882;52.256;8.874;2023-02-28T09:52:28;12.20;;;8.43;;
3733;SDS011;1882;52.256;8.874;2023-02-28T09:55:00;10.37;;;7.00;;
3733;SDS011;1882;52.256;8.874;2023-02-28T09:57:38;4.33;;;3.90;;
3733;SDS011;1882;52.256;8.874;2023-02-28T10:05:17;4.90;;;3.73;;
3733;SDS011;1882;52.256;8.874;2023-02-28T10:11:02;6.47;;;4.40;;
3733;SDS011;1882;52.256;8.874;2023-02-28T10:19:27;5.70;;;3.70;;
3733;SDS011;1882;52.256;8.874;2023-02-28T10:21:59;4.83;;;3.73;;
3733;SDS011;1882;52.256;8.874;2023-02-28T10:24:44;5.20;;;3.83;;
3733;SDS011;1882;52.256;8.874;2023-02-28T10:27:22;6.13;;;3.23;;
3733;SDS011;1882;52.256;8.874;2023-02-28T10:29:55;3.40;;;2.97;;
3733;SDS011;1882;52.256;8.874;2023-02-28T10:32:33;4.73;;;3.20;;
3733;SDS011;1882;52.256;8.874;2023-02-28T10:35:07;4.80;;;3.20;;
3733;SDS011;1882;52.256;8.874;2023-02-28T10:37:37;6.73;;;3.00;;
3733;SDS011;1882;52.256;8.874;2023-02-28T10:40:05;4.77;;;3.20;;
3733;SDS011;1882;52.256;8.874;2023-02-28T10:42:34;4.27;;;3.23;;
3733;SDS011;1882;52.256;8.874;2023-02-28T10:45:17;5.50;;;3.80;;
3733;SDS011;1882;52.256;8.874;2023-02-28T11:01:38;3.33;;;2.33;;
3733;SDS011;1882;52.256;8.874;2023-02-28T11:06:56;2.40;;;2.20;;
3733;SDS011;1882;52.256;8.874;2023-02-28T11:12:19;4.23;;;2.50;;
3733;SDS011;1882;52.256;8.874;2023-02-28T11:14:53;6.27;;;2.40;;
3733;SDS011;1882;52.256;8.874;2023-02-28T11:17:23;6.77;;;3.20;;
3733;SDS011;1882;52.256;8.874;2023-02-28T11:20:01;2.83;;;2.20;;
3733;SDS011;1882;52.256;8.874;2023-02-28T11:22:31;4.97;;;2.60;;
3733;SDS011;1882;52.256;8.874;2023-02-28T11:25:16;2.37;;;2.17;;
3733;SDS011;1882;52.256;8.874;2023-02-28T11:28:25;3.10;;;2.23;;
3733;SDS011;1882;52.256;8.874;2023-02-28T11:30:59;3.10;;;2.50;;
3733;SDS011;1882;52.256;8.874;2023-02-28T11:36:13;2.93;;;2.63;;
3733;SDS011;1882;52.256;8.874;2023-02-28T11:39:07;2.50;;;2.30;;
3733;SDS011;1882;52.256;8.874;2023-02-28T11:44:24;4.07;;;2.23;;
3733;SDS011;1882;52.256;8.874;2023-02-28T11:47:25;3.30;;;2.40;;
3733;SDS011;1882;52.256;8.874;2023-02-28T11:53:10;3.60;;;2.93;;
3733;SDS011;1882;52.256;8.874;2023-02-28T12:10:21;5.30;;;3.30;;
3733;SDS011;1882;52.256;8.874;2023-02-28T12:21:22;3.50;;;2.67;;
3733;SDS011;1882;52.256;8.874;2023-02-28T12:27:06;3.10;;;2.80;;
3733;SDS011;1882;52.256;8.874;2023-02-28T12:29:55;3.30;;;2.67;;
3733;SDS011;1882;52.256;8.874;2023-02-28T12:32:30;5.13;;;3.13;;
3733;SDS011;1882;52.256;8.874;2023-02-28T12:43:10;5.00;;;3.80;;
3733;SDS011;1882;52.256;8.874;2023-02-28T12:51:27;6.23;;;3.43;;
3733;SDS011;1882;52.256;8.874;2023-02-28T12:54:16;6.13;;;3.37;;
3733;SDS011;1882;52.256;8.874;2023-02-28T12:59:41;6.63;;;3.50;;
3733;SDS011;1882;52.256;8.874;2023-02-28T13:07:45;4.37;;;2.80;;
3733;SDS011;1882;52.256;8.874;2023-02-28T13:10:17;3.60;;;3.03;;
3733;SDS011;1882;52.256;8.874;2023-02-28T13:12:54;3.10;;;2.80;;
3733;SDS011;1882;52.256;8.874;2023-02-28T13:15:25;4.13;;;2.90;;
3733;SDS011;1882;52.256;8.874;2023-02-28T13:17:55;4.57;;;3.00;;
3733;SDS011;1882;52.256;8.874;2023-02-28T13:20:47;4.43;;;2.97;;
3733;SDS011;1882;52.256;8.874;2023-02-28T13:23:36;4.20;;;2.87;;
3733;SDS011;1882;52.256;8.874;2023-02-28T13:26:03;3.60;;;2.63;;
3733;SDS011;1882;52.256;8.874;2023-02-28T13:31:22;2.97;;;2.57;;
3733;SDS011;1882;52.256;8.874;2023-02-28T13:36:36;6.10;;;2.70;;
3733;SDS011;1882;52.256;8.874;2023-02-28T13:39:03;3.33;;;2.73;;
3733;SDS011;1882;52.256;8.874;2023-02-28T13:45:34;3.77;;;2.90;;
3733;SDS011;1882;52.256;8.874;2023-02-28T13:58:16;3.00;;;2.20;;
3733;SDS011;1882;52.256;8.874;2023-02-28T14:06:46;4.00;;;3.27;;
3733;SDS011;1882;52.256;8.874;2023-02-28T14:11:56;4.80;;;2.27;;
3733;SDS011;1882;52.256;8.874;2023-02-28T14:17:06;7.20;;;3.30;;
3733;SDS011;1882;52.256;8.874;2023-02-28T14:19:47;8.93;;;2.50;;
3733;SDS011;1882;52.256;8.874;2023-02-28T14:28:45;5.27;;;2.60;;
3733;SDS011;1882;52.256;8.874;2023-02-28T14:36:35;4.80;;;2.50;;
3733;SDS011;1882;52.256;8.874;2023-02-28T14:39:06;5.10;;;2.50;;
3733;SDS011;1882;52.256;8.874;2023-02-28T14:41:41;5.17;;;2.67;;
3733;SDS011;1882;52.256;8.874;2023-02-28T14:44:19;3.80;;;2.90;;
3733;SDS011;1882;52.256;8.874;2023-02-28T14:46:50;2.90;;;2.60;;
3733;SDS011;1882;52.256;8.874;2023-02-28T14:49:30;3.13;;;2.50;;
3733;SDS011;1882;52.256;8.874;2023-02-28T14:54:57;4.60;;;3.00;;
3733;SDS011;1882;52.256;8.874;2023-02-28T14:57:27;3.90;;;2.70;;
3733;SDS011;1882;52.256;8.874;2023-02-28T15:02:40;3.33;;;2.83;;
3733;SDS011;1882;52.256;8.874;2023-02-28T15:07:43;4.07;;;2.83;;
3733;SDS011;1882;52.256;8.874;2023-02-28T15:10:13;5.50;;;2.63;;
3733;SDS011;1882;52.256;8.874;2023-02-28T15:12:42;3.27;;;2.63;;
3733;SDS011;1882;52.256;8.874;2023-02-28T15:15:35;3.17;;;2.80;;
3733;SDS011;1882;52.256;8.874;2023-02-28T15:21:00;4.90;;;2.87;;
3733;SDS011;1882;52.256;8.874;2023-02-28T15:23:32;3.40;;;2.90;;
3733;SDS011;1882;52.256;8.874;2023-02-28T15:26:01;2.90;;;2.60;;
3733;SDS011;1882;52.256;8.874;2023-02-28T15:28:29;6.50;;;2.70;;
3733;SDS011;1882;52.256;8.874;2023-02-28T15:31:00;3.60;;;2.93;;
3733;SDS011;1882;52.256;8.874;2023-02-28T15:33:30;4.30;;;2.70;;
3733;SDS011;1882;52.256;8.874;2023-02-28T15:36:15;6.17;;;2.70;;
3733;SDS011;1882;52.256;8.874;2023-02-28T15:38:54;5.10;;;2.63;;
3733;SDS011;1882;52.256;8.874;2023-02-28T15:41:38;4.23;;;2.77;;
3733;SDS011;1882;52.256;8.874;2023-02-28T15:49:54;5.70;;;2.80;;
3733;SDS011;1882;52.256;8.874;2023-02-28T15:52:45;5.20;;;2.87;;
3733;SDS011;1882;52.256;8.874;2023-02-28T15:55:21;5.33;;;2.90;;
3733;SDS011;1882;52.256;8.874;2023-02-28T15:57:50;5.63;;;3.30;;
3733;SDS011;1882;52.256;8.874;2023-02-28T16:00:37;8.80;;;3.90;;
3733;SDS011;1882;52.256;8.874;2023-02-28T16:03:27;4.00;;;3.00;;
3733;SDS011;1882;52.256;8.874;2023-02-28T16:09:04;4.60;;;3.20;;
3733;SDS011;1882;52.256;8.874;2023-02-28T16:11:42;5.80;;;2.83;;
3733;SDS011;1882;52.256;8.874;2023-02-28T16:14:12;3.50;;;2.90;;
3733;SDS011;1882;52.256;8.874;2023-02-28T16:16:48;4.13;;;2.93;;
3733;SDS011;1882;52.256;8.874;2023-02-28T16:19:18;5.13;;;3.40;;
3733;SDS011;1882;52.256;8.874;2023-02-28T16:21:45;3.90;;;3.50;;
3733;SDS011;1882;52.256;8.874;2023-02-28T16:24:12;10.40;;;3.40;;
3733;SDS011;1882;52.256;8.874;2023-02-28T16:26:47;4.80;;;3.53;;
3733;SDS011;1882;52.256;8.874;2023-02-28T16:29:17;4.53;;;3.40;;
3733;SDS011;1882;52.256;8.874;2023-02-28T16:31:54;6.23;;;3.30;;
3733;SDS011;1882;52.256;8.874;2023-02-28T16:34:21;5.47;;;3.57;;
3733;SDS011;1882;52.256;8.874;2023-02-28T16:36:51;6.70;;;3.53;;
3733;SDS011;1882;52.256;8.874;2023-02-28T16:39:27;4.20;;;3.40;;
3733;SDS011;1882;52.256;8.874;2023-02-28T16:41:53;6.40;;;3.43;;
3733;SDS011;1882;52.256;8.874;2023-02-28T16:44:31;4.90;;;3.37;;
3733;SDS011;1882;52.256;8.874;2023-02-28T16:47:02;3.97;;;3.43;;
3733;SDS011;1882;52.256;8.874;2023-02-28T16:49:42;5.63;;;3.83;;
3733;SDS011;1882;52.256;8.874;2023-02-28T16:52:13;4.77;;;3.70;;
3733;SDS011;1882;52.256;8.874;2023-02-28T16:54:49;4.97;;;3.60;;
3733;SDS011;1882;52.256;8.874;2023-02-28T16:57:38;6.07;;;3.67;;
3733;SDS011;1882;52.256;8.874;2023-02-28T17:00:04;9.37;;;4.00;;
3733;SDS011;1882;52.256;8.874;2023-02-28T17:02:43;9.00;;;3.83;;
3733;SDS011;1882;52.256;8.874;2023-02-28T17:05:13;5.40;;;3.50;;
3733;SDS011;1882;52.256;8.874;2023-02-28T17:07:42;5.90;;;4.10;;
3733;SDS011;1882;52.256;8.874;2023-02-28T17:10:13;6.87;;;3.87;;
3733;SDS011;1882;52.256;8.874;2023-02-28T17:12:41;4.60;;;3.77;;
3733;SDS011;1882;52.256;8.874;2023-02-28T17:15:18;5.17;;;4.00;;
3733;SDS011;1882;52.256;8.874;2023-02-28T17:17:46;5.30;;;3.77;;
3733;SDS011;1882;52.256;8.874;2023-02-28T17:20:16;6.00;;;3.60;;
3733;SDS011;1882;52.256;8.874;2023-02-28T17:22:44;7.50;;;4.00;;
3733;SDS011;1882;52.256;8.874;2023-02-28T17:25:14;6.10;;;3.80;;
3733;SDS011;1882;52.256;8.874;2023-02-28T17:27:41;7.70;;;4.20;;
3733;SDS011;1882;52.256;8.874;2023-02-28T17:30:17;7.47;;;4.20;;
3733;SDS011;1882;52.256;8.874;2023-02-28T17:32:47;6.80;;;4.30;;
3733;SDS011;1882;52.256;8.874;2023-02-28T17:35:14;5.20;;;3.93;;
3733;SDS011;1882;52.256;8.874;2023-02-28T17:37:41;6.40;;;4.27;;
3733;SDS011;1882;52.256;8.874;2023-02-28T17:40:15;21.43;;;4.93;;
3733;SDS011;1882;52.256;8.874;2023-02-28T17:42:44;6.20;;;4.00;;
3733;SDS011;1882;52.256;8.874;2023-02-28T17:45:18;7.13;;;4.50;;
3733;SDS011;1882;52.256;8.874;2023-02-28T17:47:50;4.83;;;3.83;;
3733;SDS011;1882;52.256;8.874;2023-02-28T17:50:18;7.40;;;4.50;;
3733;SDS011;1882;52.256;8.874;2023-02-28T17:52:49;4.70;;;3.90;;
3733;SDS011;1882;52.256;8.874;2023-02-28T17:55:16;8.27;;;4.70;;
3733;SDS011;1882;52.256;8.874;2023-02-28T17:57:45;7.13;;;3.97;;
3733;SDS011;1882;52.256;8.874;2023-02-28T18:00:13;6.33;;;4.33;;
3733;SDS011;1882;52.256;8.874;2023-02-28T18:02:43;6.83;;;3.90;;
3733;SDS011;1882;52.256;8.874;2023-02-28T18:05:10;4.97;;;3.90;;
3733;SDS011;1882;52.256;8.874;2023-02-28T18:07:37;4.67;;;3.40;;
3733;SDS011;1882;52.256;8.874;2023-02-28T18:10:11;7.03;;;3.97;;
3733;SDS011;1882;52.256;8.874;2023-02-28T18:12:41;7.40;;;3.70;;
3733;SDS011;1882;52.256;8.874;2023-02-28T18:15:09;7.10;;;3.87;;
3733;SDS011;1882;52.256;8.874;2023-02-28T18:17:36;5.77;;;3.90;;
3733;SDS011;1882;52.256;8.874;2023-02-28T18:20:03;5.00;;;3.67;;
3733;SDS011;1882;52.256;8.874;2023-02-28T18:22:35;5.83;;;4.07;;
3733;SDS011;1882;52.256;8.874;2023-02-28T18:25:04;9.30;;;4.00;;
3733;SDS011;1882;52.256;8.874;2023-02-28T18:27:31;7.50;;;4.23;;
3733;SDS011;1882;52.256;8.874;2023-02-28T18:29:58;6.23;;;4.17;;
3733;SDS011;1882;52.256;8.874;2023-02-28T18:32:28;5.00;;;3.90;;
3733;SDS011;1882;52.256;8.874;2023-02-28T18:34:55;5.77;;;3.67;;
3733;SDS011;1882;52.256;8.874;2023-02-28T18:37:22;6.10;;;3.63;;
3733;SDS011;1882;52.256;8.874;2023-02-28T18:39:49;5.10;;;3.43;;
3733;SDS011;1882;52.256;8.874;2023-02-28T18:42:16;3.83;;;3.43;;
3733;SDS011;1882;52.256;8.874;2023-02-28T18:44:45;4.80;;;3.20;;
3733;SDS011;1882;52.256;8.874;2023-02-28T18:47:14;5.63;;;3.30;;
3733;SDS011;1882;52.256;8.874;2023-02-28T18:49:41;5.97;;;3.10;;
3733;SDS011;1882;52.256;8.874;2023-02-28T18:52:12;4.83;;;2.93;;
3733;SDS011;1882;52.256;8.874;2023-02-28T18:54:44;6.00;;;3.73;;
3733;SDS011;1882;52.256;8.874;2023-02-28T18:57:11;4.63;;;3.10;;
3733;SDS011;1882;52.256;8.874;2023-02-28T18:59:41;4.60;;;3.27;;
3733;SDS011;1882;52.256;8.874;2023-02-28T19:02:13;4.37;;;3.17;;
3733;SDS011;1882;52.256;8.874;2023-02-28T19:04:40;5.70;;;3.17;;